Time;durP1;ratioP1;P1;durP2;ratioP2;P2;SDS_P1;SDS_P2;PMS_P1;PMS_P2;Temp;Humidity;BMP_temperature;BMP_pressure;BME280_temperature;BME280_humidity;BME280_pressure;Samples;Min_cycle;Max_cycle;Signal;HPM_P1;HPM_P2
2022/04/15 00:00:27;;;;;;;6.40;2.20;;;;;;;11.67;55.48;99361.92;105840;1277;25297;-86
2022/04/15 00:03:27;;;;;;;;;;;;;;;;;;;;;
2022/04/15 00:06:08;;;;;;;5.80;1.90;;;;;;;11.66;55.58;99359.32;105813;1277;22910;-85
2022/04/15 00:09:18;;;;;;;6.80;2.20;;;;;;;11.66;55.61;99349.32;106732;1278;23509;-83
2022/04/15 00:12:17;;;;;;;;;;;;;;;;;;;;;
2022/04/15 00:15:04;;;;;;;7.80;2.90;;;;;;;11.62;55.73;99356.88;106553;1271;22544;-85
2022/04/15 00:18:15;;;;;;;;;;;;;;;;;;;;;
2022/04/15 00:21:38;;;;;;;;;;;;;;;;;;;;;
2022/04/15 00:24:32;;;;;;;6.70;2.80;;;;;;;11.69;56.39;99357.67;106424;1272;24306;-86
2022/04/15 00:27:29;;;;;;;;;;;;;;;;;;;;;
2022/04/15 00:31:08;;;;;;;7.50;3.40;;;;;;;11.70;56.74;99364.88;106514;1271;22550;-89
2022/04/15 00:34:00;;;;;;;8.10;3.20;;;;;;;11.72;56.58;99363.70;106051;1279;24225;-88
2022/04/15 00:36:28;;;;;;;9.90;4.00;;;;;;;11.72;56.24;99365.26;108067;1277;22718;-84
2022/04/15 00:39:47;;;;;;;;;;;;;;;;;;;;;
2022/04/15 00:42:43;;;;;;;;;;;;;;;;;;;;;
2022/04/15 00:46:05;;;;;;;;;;;;;;;;;;;;;
2022/04/15 00:49:33;;;;;;;;;;;;;;;;;;;;;
2022/04/15 00:53:33;;;;;;;;;;;;;;;;;;;;;
2022/04/15 00:56:27;;;;;;;9.30;4.30;;;;;;;11.47;57.65;99343.52;105792;1288;22695;-87
2022/04/15 01:00:10;;;;;;;9.00;4.60;;;;;;;11.43;58.00;99339.20;105799;1288;25322;-88
2022/04/15 01:03:26;;;;;;;;;;;;;;;;;;;;;
2022/04/15 01:06:17;;;;;;;;;;;;;;;;;;;;;
2022/04/15 01:09:43;;;;;;;;;;;;;;;;;;;;;
2022/04/15 01:12:53;;;;;;;;;;;;;;;;;;;;;
2022/04/15 01:16:02;;;;;;;9.20;4.80;;;;;;;11.33;57.97;99343.98;105586;1291;23414;-85
2022/04/15 01:19:39;;;;;;;;;;;;;;;;;;;;;
2022/04/15 01:24:04;;;;;;;9.10;4.30;;;;;;;11.34;58.10;99343.16;105463;1285;24390;-87
2022/04/15 01:27:06;;;;;;;;;;;;;;;;;;;;;
2022/04/15 01:30:38;;;;;;;;;;;;;;;;;;;;;
2022/04/15 01:33:13;;;;;;;8.80;4.50;;;;;;;11.27;58.79;99338.36;106206;1285;25673;-84
2022/04/15 01:36:09;;;;;;;9.30;4.60;;;;;;;11.25;58.59;99331.52;105950;1286;22566;-84
2022/04/15 01:39:15;;;;;;;11.40;5.00;;;;;;;11.26;58.67;99338.97;105564;1278;22869;-88
2022/04/15 01:41:59;;;;;;;9.20;4.60;;;;;;;11.23;58.60;99338.08;106804;1278;25769;-86
2022/04/15 01:44:44;;;;;;;12.70;5.00;;;;;;;11.23;58.59;99337.17;106523;1277;24260;-87
2022/04/15 01:48:11;;;;;;;;;;;;;;;;;;;;;
2022/04/15 01:51:52;;;;;;;9.10;4.30;;;;;;;11.27;58.92;99336.05;105656;1283;24437;-85
2022/04/15 01:54:23;;;;;;;9.20;4.30;;;;;;;11.28;58.98;99334.18;106178;1284;23098;-88
2022/04/15 01:57:36;;;;;;;;;;;;;;;;;;;;;
2022/04/15 02:01:35;;;;;;;;;;;;;;;;;;;;;
2022/04/15 02:05:17;;;;;;;;;;;;;;;;;;;;;
2022/04/15 02:08:22;;;;;;;8.80;4.50;;;;;;;11.18;59.16;99331.83;103462;1303;22564;-86
2022/04/15 02:15:01;;;;;;;12.30;4.70;;;;;;;11.08;59.56;99351.65;103218;1306;22876;-87
2022/04/15 02:18:17;;;;;;;;;;;;;;;;;;;;;
2022/04/15 02:21:10;;;;;;;10.60;4.80;;;;;;;11.00;59.51;99346.11;103851;1303;24341;-85
2022/04/15 02:24:43;;;;;;;;;;;;;;;;;;;;;
2022/04/15 02:27:30;;;;;;;9.50;4.60;;;;;;;11.01;59.66;99337.88;104907;1300;22793;-84
2022/04/15 02:30:12;;;;;;;;;;;;;;;;;;;;;
2022/04/15 02:32:57;;;;;;;10.30;5.20;;;;;;;10.88;59.55;99338.22;104365;1300;22887;-87
2022/04/15 02:35:40;;;;;;;9.90;4.50;;;;;;;10.84;59.59;99333.13;104199;1294;22551;-83
2022/04/15 02:38:21;;;;;;;9.00;4.60;;;;;;;10.80;59.75;99336.27;105282;1294;22732;-83
2022/04/15 02:41:12;;;;;;;10.30;4.50;;;;;;;10.78;59.75;99329.08;105516;1281;22492;-84
2022/04/15 02:44:08;;;;;;;9.00;4.40;;;;;;;10.79;59.81;99333.63;105294;1277;24529;-87
2022/04/15 02:46:58;;;;;;;;;;;;;;;;;;;;;
2022/04/15 02:50:07;;;;;;;11.50;5.50;;;;;;;10.70;59.95;99330.23;106518;1271;22607;-86
2022/04/15 02:52:35;;;;;;;9.50;5.10;;;;;;;10.67;59.87;99330.92;106944;1273;22609;-88
2022/04/15 02:56:14;;;;;;;;;;;;;;;;;;;;;
2022/04/15 02:59:16;;;;;;;9.60;4.60;;;;;;;10.35;60.24;99328.98;106841;1273;22570;-86
2022/04/15 03:02:15;;;;;;;10.20;5.40;;;;;;;10.18;60.37;99328.52;106994;1273;24233;-89
2022/04/15 03:05:17;;;;;;;;;;;;;;;;;;;;;
2022/04/15 03:07:53;;;;;;;10.90;5.30;;;;;;;10.01;60.53;99327.67;107231;1273;24256;-84
2022/04/15 03:11:50;;;;;;;9.10;4.90;;;;;;;9.91;60.42;99329.04;106682;1273;22560;-83
2022/04/15 03:14:37;;;;;;;11.90;5.50;;;;;;;9.83;60.58;99330.30;106143;1273;22633;-90
2022/04/15 03:17:19;;;;;;;17.10;8.60;;;;;;;9.75;60.68;99329.73;107089;1274;22594;-86
2022/04/15 03:20:01;;;;;;;17.20;9.20;;;;;;;9.68;60.57;99326.08;106252;1274;22613;-85
2022/04/15 03:22:37;;;;;;;15.70;7.50;;;;;;;9.62;60.85;99327.19;108243;1274;22554;-90
2022/04/15 03:25:17;;;;;;;14.40;7.90;;;;;;;9.58;60.96;99328.68;106792;1274;22544;-89
2022/04/15 03:27:58;;;;;;;12.10;6.60;;;;;;;9.53;61.38;99324.05;106956;1273;26479;-88
2022/04/15 03:30:58;;;;;;;13.00;6.60;;;;;;;9.50;61.04;99322.45;107070;1273;22760;-87
2022/04/15 03:33:49;;;;;;;13.40;7.10;;;;;;;9.50;61.56;99319.77;106641;1273;25304;-88
2022/04/15 03:36:53;;;;;;;10.70;5.50;;;;;;;9.57;61.86;99318.40;106866;1273;26628;-86
2022/04/15 03:39:40;;;;;;;13.30;6.50;;;;;;;9.65;61.78;99321.80;106165;1273;22725;-86
2022/04/15 03:43:16;;;;;;;;;;;;;;;;;;;;;
2022/04/15 03:46:40;;;;;;;;;;;;;;;;;;;;;
2022/04/15 03:49:29;;;;;;;11.80;6.50;;;;;;;9.87;62.15;99323.44;107428;1273;22560;-88
2022/04/15 03:52:46;;;;;;;;;;;;;;;;;;;;;
2022/04/15 03:56:55;;;;;;;13.10;7.60;;;;;;;9.94;61.72;99325.81;107168;1273;22550;-88
2022/04/15 03:59:53;;;;;;;;;;;;;;;;;;;;;
2022/04/15 04:03:15;;;;;;;13.50;7.10;;;;;;;9.94;61.86;99315.85;106504;1273;25596;-91
2022/04/15 04:06:30;;;;;;;;;;;;;;;;;;;;;
2022/04/15 04:09:52;;;;;;;;;;;;;;;;;;;;;
2022/04/15 04:12:34;;;;;;;16.50;9.20;;;;;;;9.79;62.12;99309.56;107641;1272;22561;-87
2022/04/15 04:15:15;;;;;;;;;;;;;;;;;;;;;
2022/04/15 04:22:31;;;;;;;15.10;8.00;;;;;;;9.94;62.13;99319.08;106783;1281;25349;-88
2022/04/15 04:25:27;;;;;;;13.50;7.90;;;;;;;10.00;62.05;99320.10;105567;1281;24233;-89
2022/04/15 04:28:38;;;;;;;;;;;;;;;;;;;;;
2022/04/15 04:32:19;;;;;;;;;;;;;;;;;;;;;
2022/04/15 04:35:38;;;;;;;12.70;7.60;;;;;;;10.04;62.60;99333.83;105177;1285;24691;-88
2022/04/15 04:39:16;;;;;;;;;;;;;;;;;;;;;
2022/04/15 04:46:05;;;;;;;14.50;8.20;;;;;;;10.08;62.56;99344.33;106161;1285;22570;-84
2022/04/15 04:49:01;;;;;;;11.90;6.80;;;;;;;10.09;62.79;99348.70;105692;1285;22770;-88
2022/04/15 04:52:10;;;;;;;12.80;7.40;;;;;;;10.11;62.71;99344.97;105857;1285;23974;-88
2022/04/15 04:55:58;;;;;;;;;;;;;;;;;;;;;
2022/04/15 04:59:15;;;;;;;13.50;8.20;;;;;;;10.26;62.43;99362.73;104990;1285;23920;-88
2022/04/15 05:02:12;;;;;;;13.00;7.20;;;;;;;10.38;62.45;99358.73;105577;1290;22592;-87
2022/04/15 05:05:31;;;;;;;13.00;7.90;;;;;;;10.49;62.47;99364.91;104458;1285;22571;-89
2022/04/15 05:08:09;;;;;;;;;;;;;;;;;;;;;
2022/04/15 05:15:27;;;;;;;;;;;;;;;;;;;;;
2022/04/15 05:19:11;;;;;;;12.70;8.60;;;;;;;10.71;62.53;99373.61;103983;1303;22840;-87
2022/04/15 05:21:37;;;;;;;16.00;9.40;;;;;;;10.85;62.48;99378.70;105057;1302;22701;-88
2022/04/15 05:24:39;;;;;;;;;;;;;;;;;;;;;
2022/04/15 05:27:46;;;;;;;;;;;;;;;;;;;;;
2022/04/15 05:31:58;;;;;;;14.90;8.70;;;;;;;11.30;62.62;99378.62;103129;1308;22840;-88
2022/04/15 05:38:35;;;;;;;;;;;;;;;;;;;;;
2022/04/15 05:41:59;;;;;;;12.90;7.10;;;;;;;11.74;62.20;99382.63;103709;1310;22677;-87
2022/04/15 05:45:48;;;;;;;;;;;;;;;;;;;;;
2022/04/15 05:48:55;;;;;;;15.00;8.60;;;;;;;12.02;62.01;99381.17;106157;1287;22583;-84
2022/04/15 05:56:02;;;;;;;;;;;;;;;;;;;;;
2022/04/15 05:59:48;;;;;;;;;;;;;;;;;;;;;
2022/04/15 06:02:45;;;;;;;;;;;;;;;;;;;;;
2022/04/15 06:05:45;;;;;;;20.70;11.70;;;;;;;12.22;61.98;99373.78;103413;1307;22722;-85
2022/04/15 06:08:16;;;;;;;23.30;15.20;;;;;;;12.27;62.11;99370.55;104640;1297;24342;-84
2022/04/15 06:10:46;;;;;;;20.00;12.90;;;;;;;12.38;62.14;99371.70;104325;1297;22585;-86
2022/04/15 06:13:41;;;;;;;19.50;12.80;;;;;;;12.39;61.94;99374.81;103905;1297;25551;-84
2022/04/15 06:16:55;;;;;;;21.70;14.30;;;;;;;12.33;62.04;99373.48;104053;1300;23116;-86
2022/04/15 06:20:07;;;;;;;22.90;13.90;;;;;;;12.28;62.20;99372.98;104335;1297;24390;-86
2022/04/15 06:23:32;;;;;;;;;;;;;;;;;;;;;
2022/04/15 06:26:50;;;;;;;28.00;16.10;;;;;;;12.83;62.29;99377.55;103736;1300;24237;-86
2022/04/15 06:30:07;;;;;;;18.70;11.30;;;;;;;13.28;62.02;99378.08;103543;1303;22580;-87
2022/04/15 06:33:45;;;;;;;23.30;15.50;;;;;;;13.61;61.75;99377.57;102817;1312;545578;-86
2022/04/15 06:36:51;;;;;;;20.80;13.00;;;;;;;13.94;61.30;99380.86;105345;1286;24250;-86
2022/04/15 06:40:40;;;;;;;16.20;10.20;;;;;;;13.96;61.18;99381.77;105167;1286;22556;-88
2022/04/15 06:43:00;;;;;;;18.80;12.30;;;;;;;14.23;60.87;99387.08;105242;1286;25499;-87
2022/04/15 06:45:53;;;;;;;18.90;12.20;;;;;;;14.39;60.75;99387.41;101862;1284;5345918;-85
2022/04/15 06:49:23;;;;;;;17.50;11.50;;;;;;;14.66;60.42;99382.80;106136;1274;22551;-85
2022/04/15 06:52:17;;;;;;;20.20;11.80;;;;;;;15.02;59.99;99385.17;106174;1274;24402;-92
2022/04/15 06:56:00;;;;;;;18.60;11.50;;;;;;;15.17;59.46;99384.96;105981;1274;24139;-89
2022/04/15 06:58:27;;;;;;;20.40;11.80;;;;;;;15.19;59.68;99387.98;105613;1281;22558;-84
2022/04/15 07:01:32;;;;;;;16.00;10.60;;;;;;;15.07;59.75;99385.43;105691;1281;22661;-86
2022/04/15 07:05:07;;;;;;;18.80;12.30;;;;;;;14.53;59.75;99384.27;105789;1279;25845;-85
2022/04/15 07:08:36;;;;;;;19.20;12.30;;;;;;;14.02;60.57;99382.69;105828;1279;25474;-84
2022/04/15 07:18:57;;;;;;;;;;;;;;;;;;;;;
2022/04/15 07:22:17;;;;;;;21.60;12.30;;;;;;;14.37;60.78;99379.69;104651;1291;22544;-85
2022/04/15 07:25:51;;;;;;;18.70;12.10;;;;;;;14.91;60.58;99378.56;104987;1288;24391;-86
2022/04/15 07:28:43;;;;;;;17.30;10.70;;;;;;;15.81;59.68;99376.99;105118;1287;22579;-85
2022/04/15 07:32:06;;;;;;;15.90;10.60;;;;;;;16.36;59.52;99369.19;105007;1288;23353;-86
2022/04/15 07:35:17;;;;;;;15.20;10.10;;;;;;;16.93;58.27;99367.23;105459;1282;22563;-87
2022/04/15 07:38:57;;;;;;;14.90;8.70;;;;;;;16.98;57.48;99367.30;104840;1286;22555;-85
2022/04/15 07:42:16;;;;;;;;;;;;;;;;;;;;;
2022/04/15 07:45:18;;;;;;;;;;;;;;;;;;;;;
2022/04/15 07:48:10;;;;;;;;;;;;;;;;;;;;;
2022/04/15 07:51:24;;;;;;;15.80;9.70;;;;;;;16.35;58.56;99365.02;104998;1283;22538;-86
2022/04/15 07:58:31;;;;;;;21.60;13.10;;;;;;;15.75;58.99;99374.39;105798;1281;22560;-86
2022/04/15 08:01:29;;;;;;;;;;;;;;;;;;;;;
2022/04/15 08:04:33;;;;;;;;;;;;;;;;;;;;;
2022/04/15 08:07:36;;;;;;;19.70;12.80;;;;;;;15.10;58.93;99383.05;105671;1281;22550;-85
2022/04/15 08:10:25;;;;;;;19.90;11.20;;;;;;;14.74;59.23;99385.23;105613;1281;22562;-86
2022/04/15 08:13:36;;;;;;;20.90;13.30;;;;;;;14.38;59.70;99393.58;105838;1280;22565;-83
2022/04/15 08:16:29;;;;;;;22.10;13.10;;;;;;;14.15;59.97;99398.83;106116;1273;22723;-86
2022/04/15 08:19:37;;;;;;;;;;;;;;;;;;;;;
2022/04/15 08:22:39;;;;;;;23.00;13.80;;;;;;;13.83;60.24;99400.73;106060;1274;22538;-89
2022/04/15 08:25:46;;;;;;;15.90;9.30;;;;;;;13.75;60.31;99405.84;106377;1273;24278;-87
2022/04/15 08:29:38;;;;;;;;;;;;;;;;;;;;;
2022/04/15 08:32:57;;;;;;;16.60;9.20;;;;;;;13.28;60.24;99409.34;105865;1279;22829;-86
2022/04/15 08:36:50;;;;;;;19.20;11.60;;;;;;;13.18;60.35;99411.66;105741;1280;25258;-85
2022/04/15 08:39:53;;;;;;;19.80;12.80;;;;;;;13.15;60.51;99412.81;106045;1279;24276;-88
2022/04/15 08:43:09;;;;;;;;;;;;;;;;;;;;;
2022/04/15 08:47:00;;;;;;;20.60;12.80;;;;;;;13.42;60.89;99413.42;105728;1279;24290;-86
2022/04/15 08:50:16;;;;;;;19.80;12.70;;;;;;;13.46;60.48;99410.42;104877;1288;22625;-85
2022/04/15 08:53:09;;;;;;;20.10;11.60;;;;;;;13.50;60.54;99414.59;104930;1288;23086;-88
2022/04/15 08:55:54;;;;;;;20.40;13.30;;;;;;;13.61;60.50;99413.96;105118;1287;25463;-84
2022/04/15 08:59:12;;;;;;;21.10;12.40;;;;;;;13.64;60.44;99414.73;105107;1287;24233;-85
2022/04/15 09:02:21;;;;;;;;;;;;;;;;;;;;;
2022/04/15 09:05:58;;;;;;;;;;;;;;;;;;;;;
2022/04/15 09:10:07;;;;;;;23.00;14.30;;;;;;;13.56;61.01;99420.97;104908;1286;25312;-86
2022/04/15 09:13:38;;;;;;;18.50;10.30;;;;;;;13.95;60.91;99419.05;105273;1285;22560;-86
2022/04/15 09:16:28;;;;;;;23.80;15.00;;;;;;;14.46;60.92;99420.49;105141;1285;25320;-85
2022/04/15 09:19:35;;;;;;;23.30;15.40;;;;;;;14.93;60.76;99420.73;104711;1291;24271;-85
2022/04/15 09:22:28;;;;;;;21.60;13.60;;;;;;;14.96;60.84;99419.18;104640;1291;22810;-86
2022/04/15 09:25:41;;;;;;;;;;;;;;;;;;;;;
2022/04/15 09:29:21;;;;;;;20.70;12.90;;;;;;;14.23;60.57;99426.33;105167;1285;24318;-85
2022/04/15 09:32:44;;;;;;;21.80;13.20;;;;;;;13.83;60.72;99430.58;105119;1285;24829;-85
2022/04/15 09:36:35;;;;;;;;;;;;;;;;;;;;;
2022/04/15 09:40:08;;;;;;;;;;;;;;;;;;;;;
2022/04/15 09:46:36;;;;;;;;;;;;;;;;;;;;;
2022/04/15 09:50:01;;;;;;;16.90;10.50;;;;;;;13.52;61.38;99442.39;104144;1295;25420;-84
2022/04/15 09:54:04;;;;;;;17.60;11.10;;;;;;;13.59;60.94;99442.20;103708;1303;23062;-86
2022/04/15 09:57:03;;;;;;;;;;;;;;;;;;;;;
2022/04/15 10:04:10;;;;;;;;;;;;;;;;;;;;;
2022/04/15 10:07:08;;;;;;;17.90;10.70;;;;;;;12.66;61.62;99464.63;103107;1309;25612;-84
2022/04/15 10:09:53;;;;;;;19.20;12.50;;;;;;;12.37;61.66;99467.81;103122;1309;24329;-83
2022/04/15 10:13:36;;;;;;;;;;;;;;;;;;;;;
2022/04/15 10:17:07;;;;;;;17.80;9.60;;;;;;;11.75;62.55;99479.23;102780;1312;22893;-84
2022/04/15 10:20:34;;;;;;;;;;;;;;;;;;;;;
2022/04/15 10:24:14;;;;;;;;;;;;;;;;;;;;;
2022/04/15 10:27:54;;;;;;;;;;;;;;;;;;;;;
2022/04/15 10:31:07;;;;;;;22.70;12.00;;;;;;;10.76;62.89;99496.13;104149;1294;24325;-86
2022/04/15 10:34:47;;;;;;;;;;;;;;;;;;;;;
2022/04/15 10:45:38;;;;;;;;;;;;;;;;;;;;;
2022/04/15 10:53:17;;;;;;;14.50;5.90;;;;;;;11.43;62.09;99503.20;103019;1301;22628;-85
2022/04/15 10:56:28;;;;;;;10.50;5.30;;;;;;;11.91;61.78;99504.83;103708;1302;25327;-86
2022/04/15 11:04:16;;;;;;;11.30;5.70;;;;;;;12.66;60.76;99497.64;103527;1302;22573;-84
2022/04/15 11:07:24;;;;;;;;;;;;;;;;;;;;;
2022/04/15 11:11:24;;;;;;;13.80;6.90;;;;;;;12.77;60.16;99496.88;103464;1299;22611;-84
2022/04/15 11:14:45;;;;;;;;;;;;;;;;;;;;;
2022/04/15 11:18:38;;;;;;;13.10;7.70;;;;;;;12.51;60.52;99498.56;103724;1300;24462;-84
2022/04/15 11:22:02;;;;;;;13.20;7.00;;;;;;;12.67;59.92;99493.29;103359;1303;22567;-84
2022/04/15 11:25:31;;;;;;;13.00;7.60;;;;;;;13.08;60.26;99498.79;103395;1302;23951;-84
2022/04/15 11:28:50;;;;;;;;;;;;;;;;;;;;;
2022/04/15 11:35:47;;;;;;;;;;;;;;;;;;;;;
2022/04/15 11:39:38;;;;;;;11.70;6.40;;;;;;;14.38;57.84;99485.63;104495;1294;26605;-84
2022/04/15 11:42:31;;;;;;;10.00;5.30;;;;;;;14.44;57.16;99483.90;104070;1294;22595;-90
2022/04/15 11:45:37;;;;;;;11.70;5.60;;;;;;;14.47;57.80;99481.13;104424;1294;25612;-85
2022/04/15 11:48:32;;;;;;;11.60;5.30;;;;;;;14.35;57.15;99482.98;104749;1294;22597;-83
2022/04/15 11:55:27;;;;;;;12.50;5.30;;;;;;;14.52;58.38;99483.94;104250;1291;24520;-83
2022/04/15 11:58:34;;;;;;;8.40;3.70;;;;;;;14.97;58.10;99480.77;104848;1287;23224;-84
2022/04/15 12:01:37;;;;;;;11.20;4.30;;;;;;;15.10;57.25;99482.04;104830;1287;22506;-87
2022/04/15 12:04:43;;;;;;;8.80;4.80;;;;;;;15.11;57.40;99479.06;104766;1285;22539;-84
2022/04/15 12:08:31;;;;;;;9.80;4.50;;;;;;;14.67;57.54;99478.95;105477;1282;22531;-88
2022/04/15 12:11:28;;;;;;;;;;;;;;;;;;;;;
2022/04/15 12:15:03;;;;;;;10.60;4.80;;;;;;;13.51;58.45;99488.64;105781;1281;24434;-84
2022/04/15 12:18:03;;;;;;;11.00;6.10;;;;;;;12.95;58.29;99491.21;105521;1282;25559;-85
2022/04/15 12:21:08;;;;;;;11.20;6.30;;;;;;;12.41;58.55;99499.68;105712;1282;24234;-82
2022/04/15 12:24:44;;;;;;;12.60;5.40;;;;;;;11.97;59.08;99510.85;105440;1281;22717;-86
2022/04/15 12:27:26;;;;;;;7.30;4.10;;;;;;;11.58;59.80;99514.29;105649;1282;25591;-88
2022/04/15 12:31:41;;;;;;;9.70;5.40;;;;;;;11.10;59.93;99519.87;105786;1281;22548;-84
2022/04/15 12:34:59;;;;;;;;;;;;;;;;;;;;;
2022/04/15 12:46:38;;;;;;;11.50;6.50;;;;;;;10.40;60.65;99537.96;104814;1287;25384;-81
2022/04/15 12:49:58;;;;;;;;;;;;;;;;;;;;;
2022/04/15 12:54:04;;;;;;;11.90;7.10;;;;;;;10.37;60.34;99541.23;103825;1302;25610;-82
2022/04/15 12:57:57;;;;;;;11.00;4.80;;;;;;;10.31;60.74;99533.74;103582;1300;24326;-87
2022/04/15 13:01:32;;;;;;;13.50;6.80;;;;;;;10.23;60.80;99535.45;103656;1300;25265;-82
2022/04/15 13:05:08;;;;;;;14.90;7.40;;;;;;;10.12;61.20;99541.86;102300;1314;22646;-82
2022/04/15 13:09:25;;;;;;;11.50;6.00;;;;;;;10.04;61.03;99542.51;101236;1329;22720;-86
2022/04/15 13:12:23;;;;;;;;;;;;;;;;;;;;;
2022/04/15 13:16:13;;;;;;;;;;;;;;;;;;;;;
2022/04/15 13:19:35;;;;;;;15.60;11.00;;;;;;;9.96;60.92;99556.34;104869;1289;22597;-82
2022/04/15 13:22:48;;;;;;;;;;;;;;;;;;;;;
2022/04/15 13:25:49;;;;;;;18.20;9.50;;;;;;;9.95;60.85;99553.76;104849;1289;25693;-81
2022/04/15 13:28:45;;;;;;;19.50;9.30;;;;;;;9.89;60.90;99554.13;100661;1288;5347985;-83
2022/04/15 13:31:36;;;;;;;21.20;9.90;;;;;;;9.86;60.78;99550.04;104671;1290;24207;-84
2022/04/15 13:34:37;;;;;;;;;;;;;;;;;;;;;
2022/04/15 13:37:29;;;;;;;18.50;7.30;;;;;;;9.68;61.01;99549.20;104913;1288;25384;-86
2022/04/15 13:40:29;;;;;;;31.20;11.50;;;;;;;9.69;60.99;99551.95;104902;1287;22559;-86
2022/04/15 13:43:18;;;;;;;20.10;9.20;;;;;;;9.74;60.94;99547.39;104457;1290;22743;-82
2022/04/15 13:46:04;;;;;;;13.40;6.60;;;;;;;9.95;60.82;99547.16;105153;1287;25223;-81
2022/04/15 13:49:39;;;;;;;22.80;9.00;;;;;;;10.21;60.75;99545.25;104705;1288;22828;-86
2022/04/15 13:58:44;;;;;;;;;;;;;;;;;;;;;
2022/04/15 14:01:46;;;;;;;19.10;7.90;;;;;;;10.82;60.43;99539.20;104594;1292;23218;-84
2022/04/15 14:04:28;;;;;;;15.00;6.90;;;;;;;10.86;60.44;99547.63;104292;1294;22597;-86
2022/04/15 14:07:12;;;;;;;20.10;7.90;;;;;;;10.85;60.59;99550.59;104409;1292;25611;-82
2022/04/15 14:10:16;;;;;;;20.30;8.50;;;;;;;10.74;60.43;99550.42;104472;1292;22569;-84
2022/04/15 14:12:45;;;;;;;16.80;6.00;;;;;;;10.62;60.79;99554.02;105513;1282;22647;-86
2022/04/15 14:15:27;;;;;;;16.50;6.30;;;;;;;10.56;60.82;99552.10;105265;1285;23323;-82
2022/04/15 14:18:04;;;;;;;21.50;6.50;;;;;;;10.55;60.81;99552.84;105248;1285;22737;-88
2022/04/15 14:21:16;;;;;;;;;;;;;;;;;;;;;
2022/04/15 14:24:43;;;;;;;;;;;;;;;;;;;;;
2022/04/15 14:27:12;;;;;;;12.90;6.30;;;;;;;10.42;60.81;99558.33;104707;1291;24241;-86
2022/04/15 14:29:57;;;;;;;;;;;;;;;;;;;;;
2022/04/15 14:32:56;;;;;;;24.00;7.60;;;;;;;10.08;61.26;99566.08;104712;1288;25341;-87
2022/04/15 14:35:47;;;;;;;;;;;;;;;;;;;;;
2022/04/15 14:39:21;;;;;;;18.50;6.70;;;;;;;9.85;61.55;99565.80;104977;1288;22690;-82
2022/04/15 14:42:24;;;;;;;;;;;;;;;;;;;;;
2022/04/15 14:45:33;;;;;;;13.40;6.60;;;;;;;9.77;61.42;99567.66;105093;1287;24417;-84
2022/04/15 14:48:28;;;;;;;15.60;6.30;;;;;;;9.76;61.78;99573.22;104733;1290;22866;-84
2022/04/15 14:51:16;;;;;;;12.80;6.10;;;;;;;9.69;61.78;99572.24;104700;1290;23991;-87
2022/04/15 14:53:59;;;;;;;10.20;5.70;;;;;;;9.63;62.03;99572.58;104569;1290;25336;-81
2022/04/15 14:56:34;;;;;;;17.70;7.10;;;;;;;9.56;61.88;99575.88;104814;1290;24083;-90
2022/04/15 14:59:19;;;;;;;19.80;7.70;;;;;;;9.47;62.81;99579.79;104694;1290;22575;-82
2022/04/15 15:03:03;;;;;;;22.20;8.60;;;;;;;9.36;62.37;99580.63;104449;1290;22630;-82
2022/04/15 15:05:40;;;;;;;38.10;11.70;;;;;;;9.29;62.56;99586.86;104663;1290;24161;-82
2022/04/15 15:08:45;;;;;;;15.70;6.90;;;;;;;9.27;63.00;99584.51;104698;1290;22896;-88
2022/04/15 15:11:53;;;;;;;;;;;;;;;;;;;;;
2022/04/15 15:15:06;;;;;;;;;;;;;;;;;;;;;
2022/04/15 15:18:20;;;;;;;;;;;;;;;;;;;;;
2022/04/15 15:22:17;;;;;;;19.80;9.20;;;;;;;9.25;62.85;99580.77;104651;1290;25362;-83
2022/04/15 15:32:18;;;;;;;17.00;7.40;;;;;;;9.54;62.75;99577.58;105231;1287;24447;-86
2022/04/15 15:35:18;;;;;;;;;;;;;;;;;;;;;
2022/04/15 15:37:55;;;;;;;16.70;6.80;;;;;;;9.63;62.84;99568.73;105337;1285;22869;-82
2022/04/15 15:40:50;;;;;;;16.60;7.90;;;;;;;9.73;62.67;99568.63;105295;1285;25599;-82
2022/04/15 15:43:46;;;;;;;11.10;6.40;;;;;;;9.73;62.82;99570.58;105649;1281;22840;-82
2022/04/15 15:47:48;;;;;;;18.60;8.00;;;;;;;9.59;62.73;99574.27;105365;1284;24302;-83
2022/04/15 15:51:26;;;;;;;;;;;;;;;;;;;;;
2022/04/15 15:54:47;;;;;;;12.00;5.70;;;;;;;9.36;63.02;99583.64;103903;1297;22562;-83
2022/04/15 16:02:16;;;;;;;13.80;6.30;;;;;;;9.08;64.36;99596.79;102963;1310;545129;-82
2022/04/15 16:05:09;;;;;;;11.40;5.30;;;;;;;8.82;64.06;99601.12;104704;1293;22563;-82
2022/04/15 16:08:36;;;;;;;14.30;5.00;;;;;;;8.67;64.51;99598.40;104442;1294;22577;-82
2022/04/15 16:11:52;;;;;;;;;;;;;;;;;;;;;
2022/04/15 16:15:18;;;;;;;16.10;7.10;;;;;;;8.46;64.66;99608.32;100622;1294;5343259;-83
2022/04/15 16:18:10;;;;;;;16.60;8.20;;;;;;;8.51;64.89;99610.14;104212;1297;22566;-86
2022/04/15 16:21:28;;;;;;;;;;;;;;;;;;;;;
2022/04/15 16:24:29;;;;;;;12.00;6.70;;;;;;;8.62;66.00;99607.54;103947;1297;22760;-85
2022/04/15 16:27:31;;;;;;;;;;;;;;;;;;;;;
2022/04/15 16:30:42;;;;;;;;;;;;;;;;;;;;;
2022/04/15 16:33:21;;;;;;;15.90;8.80;;;;;;;8.66;65.52;99605.08;104480;1297;22604;-82
2022/04/15 16:36:17;;;;;;;20.30;8.70;;;;;;;8.66;65.80;99605.06;104255;1297;22582;-83
2022/04/15 16:42:39;;;;;;;17.30;8.00;;;;;;;8.62;66.03;99607.20;103324;1303;25618;-85
2022/04/15 16:46:10;;;;;;;13.30;6.00;;;;;;;8.59;66.00;99610.38;103528;1304;22553;-87
2022/04/15 16:49:31;;;;;;;17.20;6.80;;;;;;;8.50;65.61;99610.89;103853;1300;24240;-84
2022/04/15 16:52:59;;;;;;;11.40;4.80;;;;;;;8.49;65.88;99609.52;104059;1299;22573;-82
2022/04/15 17:00:09;;;;;;;;;;;;;;;;;;;;;
2022/04/15 17:03:19;;;;;;;;;;;;;;;;;;;;;
2022/04/15 17:06:57;;;;;;;15.40;6.60;;;;;;;8.31;66.01;99612.63;104604;1293;23076;-85
2022/04/15 17:09:41;;;;;;;12.10;4.70;;;;;;;8.28;67.24;99615.11;103740;1301;22702;-82
2022/04/15 17:13:01;;;;;;;;;;;;;;;;;;;;;
2022/04/15 17:16:35;;;;;;;;;;;;;;;;;;;;;
2022/04/15 17:19:39;;;;;;;12.80;4.60;;;;;;;8.10;66.63;99612.15;103461;1299;22715;-85
2022/04/15 17:22:37;;;;;;;;;;;;;;;;;;;;;
2022/04/15 17:26:01;;;;;;;11.10;4.30;;;;;;;8.05;66.93;99617.02;104085;1300;22558;-85
2022/04/15 17:29:25;;;;;;;9.10;3.90;;;;;;;8.01;67.61;99623.05;104442;1300;23941;-83
2022/04/15 17:31:56;;;;;;;10.80;4.00;;;;;;;7.99;66.98;99625.35;104164;1294;24371;-82
2022/04/15 17:35:09;;;;;;;;;;;;;;;;;;;;;
2022/04/15 17:38:10;;;;;;;91.30;44.20;;;;;;;7.97;67.74;99631.63;104468;1294;24236;-84
2022/04/15 17:41:13;;;;;;;11.50;5.60;;;;;;;7.95;67.21;99634.77;104381;1294;22594;-83
2022/04/15 17:43:50;;;;;;;10.60;4.20;;;;;;;7.94;67.16;99633.55;104329;1294;22696;-85
2022/04/15 17:47:17;;;;;;;;;;;;;;;;;;;;;
2022/04/15 17:50:23;;;;;;;;;;;;;;;;;;;;;
2022/04/15 17:53:13;;;;;;;11.10;5.30;;;;;;;7.96;67.45;99639.13;105256;1284;22545;-82
2022/04/15 17:56:08;;;;;;;;;;;;;;;;;;;;;
2022/04/15 17:59:11;;;;;;;;;;;;;;;;;;;;;
2022/04/15 18:01:40;;;;;;;10.40;4.70;;;;;;;7.95;67.75;99647.49;105592;1284;22565;-83
2022/04/15 18:04:29;;;;;;;;;;;;;;;;;;;;;
2022/04/15 18:08:04;;;;;;;;;;;;;;;;;;;;;
2022/04/15 18:11:40;;;;;;;;;;;;;;;;;;;;;
2022/04/15 18:14:24;;;;;;;11.60;4.90;;;;;;;7.89;67.72;99655.28;105102;1287;22594;-85
2022/04/15 18:17:29;;;;;;;11.80;5.40;;;;;;;7.86;68.25;99663.36;105249;1287;22630;-82
2022/04/15 18:20:14;;;;;;;16.60;6.80;;;;;;;7.82;68.00;99666.80;104949;1287;22579;-90
2022/04/15 18:23:26;;;;;;;;;;;;;;;;;;;;;
2022/04/15 18:26:44;;;;;;;11.50;5.10;;;;;;;7.78;68.51;99674.80;105332;1287;22603;-84
2022/04/15 18:29:34;;;;;;;11.10;5.00;;;;;;;7.76;68.10;99677.73;105229;1281;22634;-84
2022/04/15 18:33:03;;;;;;;;;;;;;;;;;;;;;
2022/04/15 18:36:33;;;;;;;13.90;8.00;;;;;;;7.74;68.78;99678.34;105409;1286;24658;-86
2022/04/15 18:39:15;;;;;;;14.00;7.00;;;;;;;7.72;68.68;99679.91;105146;1285;22578;-84
2022/04/15 18:42:27;;;;;;;28.80;12.40;;;;;;;7.70;68.70;99677.48;105345;1282;24327;-85
2022/04/15 18:46:26;;;;;;;14.80;7.30;;;;;;;7.67;69.00;99679.80;105909;1279;26476;-85
2022/04/15 18:53:24;;;;;;;18.90;9.10;;;;;;;7.63;68.72;99689.56;105813;1279;22573;-82
2022/04/15 18:57:06;;;;;;;13.20;6.50;;;;;;;7.62;68.75;99685.53;105880;1279;26649;-84
2022/04/15 18:59:41;;;;;;;11.00;5.20;;;;;;;7.67;68.55;99686.86;105827;1279;22627;-82
2022/04/15 19:03:17;;;;;;;;;;;;;;;;;;;;;
2022/04/15 19:06:33;;;;;;;;;;;;;;;;;;;;;
2022/04/15 19:09:25;;;;;;;;;;;;;;;;;;;;;
2022/04/15 19:12:18;;;;;;;;;;;;;;;;;;;;;
2022/04/15 19:15:49;;;;;;;39.30;27.70;;;;;;;7.63;69.04;99694.33;105661;1281;23971;-83
2022/04/15 19:19:45;;;;;;;42.20;31.90;;;;;;;7.63;69.39;99692.73;105614;1281;25373;-84
2022/04/15 19:22:20;;;;;;;28.30;16.90;;;;;;;7.61;69.15;99693.36;105866;1281;23973;-84
2022/04/15 19:26:04;;;;;;;;;;;;;;;;;;;;;
2022/04/15 19:29:27;;;;;;;;;;;;;;;;;;;;;
2022/04/15 19:32:48;;;;;;;;;;;;;;;;;;;;;
2022/04/15 19:36:30;;;;;;;;;;;;;;;;;;;;;
2022/04/15 19:39:50;;;;;;;9.70;4.60;;;;;;;7.64;69.58;99698.58;104029;1300;22656;-91